Time;durP1;ratioP1;P1;durP2;ratioP2;P2;SDS_P1;SDS_P2;PMS_P1;PMS_P2;Temp;Humidity;BMP_temperature;BMP_pressure;BME280_temperature;BME280_humidity;BME280_pressure;Samples;Min_cycle;Max_cycle;Signal;HPM_P1;HPM_P2
2021/05/17 00:00:35;;;;;;;5.25;2.90;;;;;;;;;;6290111;28;20137;-73
2021/05/17 00:03:38;;;;;;;4.13;2.70;;;;;;;;;;6282843;28;20056;-73
2021/05/17 00:06:39;;;;;;;3.08;2.30;;;;;;;;;;6286555;28;20052;-73
2021/05/17 00:09:42;;;;;;;2.70;2.13;;;;;;;;;;6284379;28;20048;-73
2021/05/17 00:12:43;;;;;;;4.32;2.30;;;;;;;;;;6283623;28;20043;-73
2021/05/17 00:15:45;;;;;;;2.92;2.17;;;;;;;;;;6281494;28;20443;-73
2021/05/17 00:18:46;;;;;;;2.25;1.50;;;;;;;;;;6289326;28;20097;-73
2021/05/17 00:21:48;;;;;;;2.30;1.20;;;;;;;;;;6287675;28;20140;-73
2021/05/17 00:24:50;;;;;;;3.63;1.60;;;;;;;;;;6275886;28;20127;-73
2021/05/17 00:27:53;;;;;;;2.65;1.35;;;;;;;;;;6276133;28;20045;-74
2021/05/17 00:30:54;;;;;;;2.13;1.30;;;;;;;;;;6280965;28;20127;-73
2021/05/17 00:33:56;;;;;;;2.50;1.38;;;;;;;;;;6271899;28;20227;-73
2021/05/17 00:36:57;;;;;;;1.90;1.08;;;;;;;;;;6274990;28;20058;-73
2021/05/17 00:40:00;;;;;;;1.80;0.95;;;;;;;;;;6274391;28;20517;-73
2021/05/17 00:43:03;;;;;;;3.35;0.95;;;;;;;;;;6279680;28;20764;-73
2021/05/17 00:46:04;;;;;;;2.38;0.88;;;;;;;;;;6287201;28;20683;-73
2021/05/17 00:49:06;;;;;;;1.70;1.17;;;;;;;;;;6275549;28;20077;-74
2021/05/17 00:52:09;;;;;;;1.65;1.05;;;;;;;;;;6283315;28;20147;-73
2021/05/17 00:55:12;;;;;;;1.90;0.80;;;;;;;;;;6289588;28;20053;-73
2021/05/17 00:58:14;;;;;;;1.58;0.70;;;;;;;;;;6287469;28;20043;-73
2021/05/17 01:01:16;;;;;;;0.98;0.70;;;;;;;;;;6286802;28;20132;-73
2021/05/17 01:04:17;;;;;;;1.23;0.77;;;;;;;;;;6605695;22;20614;-71
2021/05/17 01:07:23;;;;;;;0.95;0.70;;;;;;;;;;6300010;28;20068;-70
2021/05/17 01:10:26;;;;;;;1.67;0.70;;;;;;;;;;6303905;28;20049;-70
2021/05/17 01:13:28;;;;;;;1.30;0.68;;;;;;;;;;6298439;28;20561;-69
2021/05/17 01:16:30;;;;;;;1.63;0.80;;;;;;;;;;6279479;28;20128;-70
2021/05/17 01:19:35;;;;;;;2.45;0.75;;;;;;;;;;6305792;28;20044;-73
2021/05/17 01:22:47;;;;;;;1.80;0.98;;;;;;;;;;6304879;28;20143;-74
2021/05/17 01:25:50;;;;;;;1.75;0.80;;;;;;;;;;6306251;28;20122;-74
2021/05/17 01:28:57;;;;;;;2.78;0.80;;;;;;;;;;6305228;28;20056;-69
2021/05/17 01:32:00;;;;;;;0.95;0.60;;;;;;;;;;6280285;28;20045;-70
2021/05/17 01:35:10;;;;;;;2.17;0.60;;;;;;;;;;6302772;28;20056;-68
2021/05/17 01:38:15;;;;;;;1.10;0.80;;;;;;;;;;6334390;28;20061;-69
2021/05/17 01:41:25;;;;;;;1.63;1.00;;;;;;;;;;6340553;27;20079;-69
2021/05/17 01:44:29;;;;;;;2.15;0.80;;;;;;;;;;6333132;28;20048;-75
2021/05/17 01:47:31;;;;;;;1.67;0.93;;;;;;;;;;6328047;28;20040;-69
2021/05/17 01:50:37;;;;;;;1.35;1.10;;;;;;;;;;6334418;28;20059;-69
2021/05/17 01:53:46;;;;;;;1.90;1.08;;;;;;;;;;6341289;28;20054;-69
2021/05/17 01:56:52;;;;;;;1.67;1.23;;;;;;;;;;6337801;28;20450;-69
2021/05/17 01:59:54;;;;;;;2.15;1.05;;;;;;;;;;6337002;28;20071;-69
2021/05/17 02:02:56;;;;;;;2.60;1.10;;;;;;;;;;6336103;28;20044;-68
2021/05/17 02:05:57;;;;;;;1.85;1.08;;;;;;;;;;6319075;28;20051;-68
2021/05/17 02:09:10;;;;;;;1.77;1.10;;;;;;;;;;6321632;28;20135;-68
2021/05/17 02:12:17;;;;;;;1.85;0.90;;;;;;;;;;6314038;28;20048;-69
2021/05/17 02:15:20;;;;;;;1.35;1.00;;;;;;;;;;6311018;28;20126;-69
2021/05/17 02:18:22;;;;;;;1.70;1.15;;;;;;;;;;6317260;28;20043;-69
2021/05/17 02:21:24;;;;;;;3.58;1.67;;;;;;;;;;6314110;28;20059;-73
2021/05/17 02:24:25;;;;;;;2.55;1.40;;;;;;;;;;6314515;28;20129;-72
2021/05/17 02:27:28;;;;;;;1.98;1.20;;;;;;;;;;6317661;28;20067;-70
2021/05/17 02:30:30;;;;;;;2.15;1.25;;;;;;;;;;6319546;28;20044;-69
2021/05/17 02:33:32;;;;;;;2.22;1.40;;;;;;;;;;6316242;28;20071;-69
2021/05/17 02:36:34;;;;;;;2.05;1.40;;;;;;;;;;6314576;28;20055;-72
2021/05/17 02:39:35;;;;;;;1.80;1.17;;;;;;;;;;6317411;28;21621;-71
2021/05/17 02:42:38;;;;;;;2.55;1.40;;;;;;;;;;6321866;28;20186;-71
2021/05/17 02:45:40;;;;;;;2.50;1.45;;;;;;;;;;6316152;28;20182;-69
2021/05/17 02:48:42;;;;;;;1.70;1.30;;;;;;;;;;6314926;28;20138;-69
2021/05/17 02:51:43;;;;;;;3.90;1.73;;;;;;;;;;6318394;28;20112;-70
2021/05/17 02:54:55;;;;;;;2.10;1.40;;;;;;;;;;6316391;28;20066;-70
2021/05/17 02:58:04;;;;;;;3.55;1.83;;;;;;;;;;6314119;28;20059;-68
2021/05/17 03:01:08;;;;;;;1.85;1.40;;;;;;;;;;6312676;28;20055;-68
2021/05/17 03:04:13;;;;;;;3.17;1.55;;;;;;;;;;6315184;28;20398;-69
2021/05/17 03:07:15;;;;;;;1.55;1.27;;;;;;;;;;6320624;28;20486;-68
2021/05/17 03:10:16;;;;;;;2.58;1.50;;;;;;;;;;6302312;28;20138;-69
2021/05/17 03:13:19;;;;;;;2.53;1.50;;;;;;;;;;6310145;28;20044;-70
2021/05/17 03:16:21;;;;;;;2.03;1.58;;;;;;;;;;6306234;28;20563;-69
2021/05/17 03:19:23;;;;;;;2.20;1.50;;;;;;;;;;6319058;28;20071;-73
2021/05/17 03:22:26;;;;;;;2.33;1.70;;;;;;;;;;6314838;28;20532;-73
2021/05/17 03:25:33;;;;;;;2.72;1.80;;;;;;;;;;6312376;28;20048;-69
2021/05/17 03:28:35;;;;;;;2.60;1.67;;;;;;;;;;6316863;28;20087;-69
2021/05/17 03:31:36;;;;;;;1.95;1.52;;;;;;;;;;6314103;28;20068;-69
2021/05/17 03:34:37;;;;;;;2.95;1.92;;;;;;;;;;6314806;28;20139;-69
2021/05/17 03:37:38;;;;;;;2.20;1.90;;;;;;;;;;6310981;28;20580;-69
2021/05/17 03:40:39;;;;;;;2.88;1.73;;;;;;;;;;6315633;28;20064;-69
2021/05/17 03:43:41;;;;;;;2.83;2.00;;;;;;;;;;6309851;28;20198;-70
2021/05/17 03:46:42;;;;;;;3.28;2.15;;;;;;;;;;6311571;28;20494;-70
2021/05/17 03:49:43;;;;;;;3.83;2.20;;;;;;;;;;6315252;28;20048;-75
2021/05/17 03:52:45;;;;;;;3.13;2.83;;;;;;;;;;6311523;28;20068;-71
2021/05/17 03:55:46;;;;;;;3.08;2.70;;;;;;;;;;6311668;28;20584;-69
2021/05/17 03:58:48;;;;;;;4.68;3.58;;;;;;;;;;6311622;28;20079;-73
2021/05/17 04:01:49;;;;;;;5.72;4.80;;;;;;;;;;6311015;28;20675;-71
2021/05/17 04:04:58;;;;;;;8.80;5.00;;;;;;;;;;6314029;28;20475;-73
2021/05/17 04:08:26;;;;;;;5.90;5.32;;;;;;;;;;6319717;28;20050;-69
2021/05/17 04:14:48;;;;;;;10.10;6.85;;;;;;;;;;6310885;28;20123;-73
2021/05/17 04:17:49;;;;;;;8.07;6.82;;;;;;;;;;6310494;28;20048;-70
2021/05/17 04:20:52;;;;;;;9.35;7.68;;;;;;;;;;6316631;28;20051;-69
2021/05/17 04:23:53;;;;;;;8.30;6.95;;;;;;;;;;6301901;28;20060;-69
2021/05/17 04:26:54;;;;;;;10.15;7.57;;;;;;;;;;6310299;28;20740;-69
2021/05/17 04:29:57;;;;;;;8.32;7.13;;;;;;;;;;6314412;28;20063;-68
2021/05/17 04:32:58;;;;;;;7.93;7.13;;;;;;;;;;6315337;28;20052;-70
2021/05/17 04:36:00;;;;;;;9.23;7.90;;;;;;;;;;6310058;28;20112;-69
2021/05/17 04:39:03;;;;;;;9.68;7.70;;;;;;;;;;6309299;28;20131;-69
2021/05/17 04:42:05;;;;;;;10.23;7.53;;;;;;;;;;6307678;28;20040;-72
2021/05/17 04:45:08;;;;;;;10.43;8.23;;;;;;;;;;6312296;28;20097;-70
2021/05/17 04:48:09;;;;;;;9.65;7.97;;;;;;;;;;6307144;28;20050;-70
2021/05/17 04:51:10;;;;;;;10.15;7.60;;;;;;;;;;6309981;28;20136;-69
2021/05/17 04:54:12;;;;;;;9.80;7.70;;;;;;;;;;6309704;28;20082;-69
2021/05/17 04:57:13;;;;;;;10.50;8.05;;;;;;;;;;6315545;28;20039;-70
2021/05/17 05:00:16;;;;;;;9.68;8.07;;;;;;;;;;6312734;28;20140;-69
2021/05/17 05:03:18;;;;;;;9.95;8.88;;;;;;;;;;6309996;28;20052;-70
2021/05/17 05:06:19;;;;;;;8.93;7.80;;;;;;;;;;6307918;28;20040;-69
2021/05/17 05:09:20;;;;;;;9.35;8.38;;;;;;;;;;6311671;28;20131;-68
2021/05/17 05:12:21;;;;;;;10.23;8.55;;;;;;;;;;6322538;28;20103;-70
2021/05/17 05:15:23;;;;;;;8.63;7.32;;;;;;;;;;6315948;28;20087;-71
2021/05/17 05:18:24;;;;;;;8.35;7.38;;;;;;;;;;6301378;28;20051;-70
2021/05/17 05:21:25;;;;;;;8.85;7.95;;;;;;;;;;6308047;28;20598;-69
2021/05/17 05:24:26;;;;;;;8.93;7.43;;;;;;;;;;6312266;28;20067;-69
2021/05/17 05:27:31;;;;;;;12.20;7.40;;;;;;;;;;6306400;28;20510;-69
2021/05/17 05:30:44;;;;;;;6.88;6.18;;;;;;;;;;6310403;28;20546;-69
2021/05/17 05:33:45;;;;;;;7.25;6.05;;;;;;;;;;6296671;28;20097;-69
2021/05/17 05:36:46;;;;;;;7.05;4.90;;;;;;;;;;6307630;28;20111;-69
2021/05/17 05:39:47;;;;;;;6.32;5.13;;;;;;;;;;6310957;28;20089;-70
2021/05/17 05:42:48;;;;;;;5.70;5.10;;;;;;;;;;6301161;28;20064;-72
2021/05/17 05:45:51;;;;;;;6.75;5.82;;;;;;;;;;6307017;28;20059;-68
2021/05/17 05:48:52;;;;;;;8.55;5.70;;;;;;;;;;6303080;28;20502;-69
2021/05/17 05:51:53;;;;;;;9.02;6.80;;;;;;;;;;6310146;28;20067;-69
2021/05/17 05:54:54;;;;;;;11.10;7.38;;;;;;;;;;6303328;28;20147;-70
2021/05/17 05:57:56;;;;;;;10.35;7.57;;;;;;;;;;6312756;28;20139;-71
2021/05/17 06:00:58;;;;;;;10.48;7.22;;;;;;;;;;6304523;28;20099;-67
2021/05/17 06:03:59;;;;;;;8.02;7.22;;;;;;;;;;6312075;28;20595;-69
2021/05/17 06:07:00;;;;;;;8.30;7.20;;;;;;;;;;6307276;28;20097;-71
2021/05/17 06:10:02;;;;;;;8.45;7.55;;;;;;;;;;6314658;28;20538;-70
2021/05/17 06:13:03;;;;;;;8.20;6.03;;;;;;;;;;6313015;28;20059;-68
2021/05/17 06:16:07;;;;;;;6.30;5.70;;;;;;;;;;6311489;28;20055;-69
2021/05/17 06:19:10;;;;;;;5.68;4.60;;;;;;;;;;6301736;28;20128;-68
2021/05/17 06:22:11;;;;;;;7.30;5.70;;;;;;;;;;6310351;28;20482;-74
2021/05/17 06:25:14;;;;;;;8.93;6.38;;;;;;;;;;6311884;28;20076;-69
2021/05/17 06:28:19;;;;;;;5.63;4.53;;;;;;;;;;6312255;28;20048;-69
2021/05/17 06:31:22;;;;;;;5.30;4.10;;;;;;;;;;6311809;28;20164;-69
2021/05/17 06:34:23;;;;;;;5.38;4.20;;;;;;;;;;6310660;28;20440;-69
2021/05/17 06:37:25;;;;;;;7.38;4.65;;;;;;;;;;6318162;28;20048;-69
2021/05/17 06:40:26;;;;;;;4.93;3.42;;;;;;;;;;6303324;28;20089;-70
2021/05/17 06:43:28;;;;;;;12.48;3.28;;;;;;;;;;6307580;28;20044;-68
2021/05/17 06:46:30;;;;;;;5.65;3.30;;;;;;;;;;6304695;28;20048;-70
2021/05/17 06:49:32;;;;;;;4.07;2.97;;;;;;;;;;6307082;28;20093;-70
2021/05/17 06:52:33;;;;;;;5.70;3.20;;;;;;;;;;6308500;28;20068;-69
2021/05/17 06:55:39;;;;;;;3.35;2.42;;;;;;;;;;6306127;28;20162;-69
2021/05/17 06:58:53;;;;;;;2.70;2.35;;;;;;;;;;6310942;28;20570;-72
2021/05/17 07:01:56;;;;;;;5.63;2.47;;;;;;;;;;6307602;28;20044;-73
2021/05/17 07:04:57;;;;;;;6.40;1.83;;;;;;;;;;6311334;28;20627;-72
2021/05/17 07:14:34;;;;;;;3.83;2.10;;;;;;;;;;6298921;28;20055;-72
2021/05/17 07:17:36;;;;;;;3.97;2.30;;;;;;;;;;6311323;28;20051;-72
2021/05/17 07:23:37;;;;;;;5.35;3.13;;;;;;;;;;6312068;28;20060;-73
2021/05/17 07:23:58;;;;;;;5.00;3.53;;;;;;;;;;6311478;28;20139;-72
2021/05/17 07:27:00;;;;;;;5.43;3.40;;;;;;;;;;6321041;28;20044;-73
2021/05/17 07:30:01;;;;;;;5.30;3.17;;;;;;;;;;6316075;28;20106;-71
2021/05/17 07:33:04;;;;;;;5.60;3.30;;;;;;;;;;6315315;28;20048;-72
2021/05/17 07:36:08;;;;;;;6.30;3.35;;;;;;;;;;6309563;28;20075;-72
2021/05/17 07:39:09;;;;;;;6.13;3.40;;;;;;;;;;6319382;28;20182;-72
2021/05/17 07:42:14;;;;;;;4.05;3.40;;;;;;;;;;6319741;28;20063;-73
2021/05/17 07:45:18;;;;;;;4.90;3.00;;;;;;;;;;6309923;28;20080;-72
2021/05/17 07:48:20;;;;;;;4.28;3.25;;;;;;;;;;6310013;28;20080;-69
2021/05/17 07:51:21;;;;;;;5.28;4.28;;;;;;;;;;6309520;28;20047;-71
2021/05/17 07:54:23;;;;;;;7.55;3.83;;;;;;;;;;6307289;28;20076;-68
2021/05/17 07:57:24;;;;;;;5.88;3.60;;;;;;;;;;6311655;28;20067;-68
2021/05/17 08:00:26;;;;;;;4.50;3.05;;;;;;;;;;6309580;28;20055;-68
2021/05/17 08:03:28;;;;;;;5.18;3.17;;;;;;;;;;6309427;28;20056;-69
2021/05/17 08:06:29;;;;;;;4.22;2.22;;;;;;;;;;6311493;28;20075;-70
2021/05/17 08:09:30;;;;;;;4.40;2.40;;;;;;;;;;6316731;28;20073;-69
2021/05/17 08:12:32;;;;;;;4.85;2.75;;;;;;;;;;6312030;28;20052;-68
2021/05/17 08:15:33;;;;;;;6.10;3.75;;;;;;;;;;6310033;28;20086;-71
2021/05/17 08:18:35;;;;;;;7.20;5.00;;;;;;;;;;6307350;28;20066;-71
2021/05/17 08:21:37;;;;;;;7.03;4.68;;;;;;;;;;6297577;28;20564;-71
2021/05/17 08:24:38;;;;;;;5.53;3.90;;;;;;;;;;6310303;28;20070;-70
2021/05/17 08:27:40;;;;;;;7.45;3.80;;;;;;;;;;6310204;28;20040;-69
2021/05/17 08:30:42;;;;;;;5.57;4.28;;;;;;;;;;6308668;28;20063;-68
2021/05/17 08:33:45;;;;;;;5.17;3.93;;;;;;;;;;6310956;28;20048;-69
2021/05/17 08:36:47;;;;;;;6.40;3.75;;;;;;;;;;6308486;28;20040;-69
2021/05/17 08:39:48;;;;;;;5.10;3.78;;;;;;;;;;6315309;28;20093;-69
2021/05/17 08:42:49;;;;;;;5.78;3.30;;;;;;;;;;6313799;28;20078;-69
2021/05/17 08:45:51;;;;;;;4.15;3.45;;;;;;;;;;6311974;28;20036;-69
2021/05/17 08:48:57;;;;;;;6.13;3.67;;;;;;;;;;6307296;28;20048;-69
2021/05/17 08:51:58;;;;;;;4.13;2.85;;;;;;;;;;6307585;28;20541;-69
2021/05/17 08:54:59;;;;;;;5.38;3.00;;;;;;;;;;6313905;28;20395;-69
2021/05/17 08:58:01;;;;;;;3.25;2.42;;;;;;;;;;6302207;28;20048;-72
2021/05/17 09:01:03;;;;;;;4.07;2.45;;;;;;;;;;6300059;28;20479;-72
2021/05/17 09:04:08;;;;;;;3.60;2.70;;;;;;;;;;6302579;28;20047;-71
2021/05/17 09:07:10;;;;;;;3.17;2.20;;;;;;;;;;6311523;28;20132;-70
2021/05/17 09:10:16;;;;;;;6.03;1.80;;;;;;;;;;6309403;28;20131;-69
2021/05/17 09:13:18;;;;;;;3.53;1.92;;;;;;;;;;6306200;28;20600;-69
2021/05/17 09:16:22;;;;;;;2.60;1.92;;;;;;;;;;6307980;28;20047;-76
2021/05/17 09:19:25;;;;;;;5.80;1.75;;;;;;;;;;6310219;28;20075;-74
2021/05/17 09:22:36;;;;;;;4.53;1.33;;;;;;;;;;6307906;28;20125;-70
2021/05/17 09:25:39;;;;;;;2.88;1.35;;;;;;;;;;6311721;28;20074;-69
2021/05/17 09:28:44;;;;;;;3.20;1.20;;;;;;;;;;6312592;28;20047;-70
2021/05/17 09:31:46;;;;;;;1.58;1.00;;;;;;;;;;6307440;28;20516;-70
2021/05/17 09:34:59;;;;;;;1.77;1.00;;;;;;;;;;6309575;28;20080;-69
2021/05/17 09:38:04;;;;;;;4.80;1.17;;;;;;;;;;6307851;28;20066;-70
2021/05/17 09:41:07;;;;;;;3.33;1.35;;;;;;;;;;6307110;28;20063;-71
2021/05/17 09:44:09;;;;;;;;;;;;;;;;;;6308392;28;20048;-73
2021/05/17 09:47:13;;;;;;;1.40;0.80;;;;;;;;;;6308956;28;19927;-70
2021/05/17 09:50:16;;;;;;;2.58;0.90;;;;;;;;;;6307136;28;20064;-70
2021/05/17 09:53:22;;;;;;;1.45;0.80;;;;;;;;;;6303044;28;20060;-71
2021/05/17 09:56:23;;;;;;;2.28;0.98;;;;;;;;;;6304634;28;20055;-69
2021/05/17 09:59:25;;;;;;;1.42;0.88;;;;;;;;;;6306115;28;20063;-70
2021/05/17 10:02:31;;;;;;;2.90;0.80;;;;;;;;;;6305089;28;20040;-70
2021/05/17 10:05:35;;;;;;;2.22;0.65;;;;;;;;;;6317000;28;20057;-71
2021/05/17 10:08:36;;;;;;;2.00;0.63;;;;;;;;;;6305041;28;21452;-71
2021/05/17 10:11:37;;;;;;;1.23;0.63;;;;;;;;;;6305543;28;20124;-70
2021/05/17 10:14:39;;;;;;;2.30;0.70;;;;;;;;;;6305151;28;20140;-70
2021/05/17 10:17:41;;;;;;;0.90;0.55;;;;;;;;;;6308284;28;20376;-70
2021/05/17 10:20:44;;;;;;;2.17;0.40;;;;;;;;;;6305789;28;20550;-70
2021/05/17 10:23:48;;;;;;;1.52;0.70;;;;;;;;;;6314996;28;20073;-70
2021/05/17 10:26:49;;;;;;;4.70;0.80;;;;;;;;;;6311594;28;20044;-71
2021/05/17 10:29:51;;;;;;;1.20;0.80;;;;;;;;;;6310569;28;20482;-70
2021/05/17 10:33:26;;;;;;;1.02;0.70;;;;;;;;;;6317081;28;20107;-73
2021/05/17 10:36:47;;;;;;;2.17;0.65;;;;;;;;;;6312022;28;20043;-71
2021/05/17 10:39:55;;;;;;;1.52;0.73;;;;;;;;;;6315805;28;20048;-70
2021/05/17 10:43:04;;;;;;;1.35;0.80;;;;;;;;;;6313372;28;20051;-72
2021/05/17 10:49:32;;;;;;;3.03;0.77;;;;;;;;;;6313873;28;20138;-69
2021/05/17 10:52:36;;;;;;;1.25;0.77;;;;;;;;;;6303660;28;20044;-73
2021/05/17 10:55:37;;;;;;;1.77;0.90;;;;;;;;;;6303125;28;20064;-71
2021/05/17 11:02:22;;;;;;;;;;;;;;;;;;6311225;28;20048;-70
2021/05/17 11:05:23;;;;;;;5.03;0.88;;;;;;;;;;6315507;28;20055;-70
2021/05/17 11:08:25;;;;;;;1.75;0.80;;;;;;;;;;6313348;28;20051;-70
2021/05/17 11:11:27;;;;;;;2.28;0.88;;;;;;;;;;6315429;28;20036;-70
2021/05/17 11:14:30;;;;;;;1.40;0.73;;;;;;;;;;6314219;28;20069;-70
2021/05/17 11:17:31;;;;;;;;;;;;;;;;;;6313763;28;20044;-69
2021/05/17 11:20:50;;;;;;;2.83;0.73;;;;;;;;;;6315363;28;19919;-71
2021/05/17 11:24:03;;;;;;;2.83;0.95;;;;;;;;;;6315316;28;20055;-70
2021/05/17 11:27:06;;;;;;;3.00;0.80;;;;;;;;;;6312507;28;20136;-70
2021/05/17 11:30:36;;;;;;;2.83;0.90;;;;;;;;;;6309295;28;20052;-72
2021/05/17 11:33:48;;;;;;;1.27;0.70;;;;;;;;;;6316234;28;20119;-71
2021/05/17 11:36:52;;;;;;;1.50;0.70;;;;;;;;;;6318943;28;20177;-70
2021/05/17 11:39:54;;;;;;;2.50;0.60;;;;;;;;;;6313975;28;20093;-70
2021/05/17 11:42:58;;;;;;;0.85;0.60;;;;;;;;;;6313571;28;20101;-69
2021/05/17 11:46:00;;;;;;;1.20;0.57;;;;;;;;;;6309944;28;20073;-70
2021/05/17 11:49:01;;;;;;;1.40;0.50;;;;;;;;;;6308074;28;20044;-69
2021/05/17 11:52:04;;;;;;;0.95;0.30;;;;;;;;;;6314299;28;20414;-71
2021/05/17 11:55:10;;;;;;;1.10;0.52;;;;;;;;;;6316767;28;20092;-70
2021/05/17 11:58:11;;;;;;;2.80;0.60;;;;;;;;;;6312988;28;20048;-69
2021/05/17 12:01:16;;;;;;;2.28;0.68;;;;;;;;;;6316469;28;20127;-71
2021/05/17 12:04:20;;;;;;;1.20;0.50;;;;;;;;;;6314715;28;20080;-72
2021/05/17 12:07:21;;;;;;;2.33;0.70;;;;;;;;;;6314773;28;20110;-70
2021/05/17 12:10:34;;;;;;;0.90;0.50;;;;;;;;;;6310205;28;20056;-72
2021/05/17 12:13:44;;;;;;;3.17;0.67;;;;;;;;;;6311539;28;20122;-71
2021/05/17 12:16:45;;;;;;;1.70;0.47;;;;;;;;;;6308551;28;20445;-73
2021/05/17 12:19:48;;;;;;;1.33;0.55;;;;;;;;;;6320491;28;20124;-71
2021/05/17 12:22:50;;;;;;;5.15;0.50;;;;;;;;;;6308548;28;20066;-70
2021/05/17 12:25:56;;;;;;;2.13;0.40;;;;;;;;;;6310575;28;20582;-70
2021/05/17 12:28:58;;;;;;;0.60;0.50;;;;;;;;;;6313164;28;20048;-73
2021/05/17 12:32:10;;;;;;;1.05;0.60;;;;;;;;;;6310756;28;20040;-74
2021/05/17 12:35:13;;;;;;;1.90;0.35;;;;;;;;;;6321070;28;20097;-71
2021/05/17 12:38:16;;;;;;;0.70;0.38;;;;;;;;;;6318095;28;20044;-70
2021/05/17 12:41:34;;;;;;;1.52;0.50;;;;;;;;;;6305131;28;20056;-71
2021/05/17 12:44:39;;;;;;;2.55;0.40;;;;;;;;;;6311490;28;20396;-72
2021/05/17 12:47:42;;;;;;;0.68;0.30;;;;;;;;;;6314667;28;20424;-71
2021/05/17 12:50:44;;;;;;;0.77;0.50;;;;;;;;;;6275122;28;20127;-71
2021/05/17 12:53:45;;;;;;;0.47;0.40;;;;;;;;;;6300845;28;20093;-70
2021/05/17 12:56:47;;;;;;;4.93;0.52;;;;;;;;;;6304866;28;20121;-70
2021/05/17 12:59:48;;;;;;;0.20;0.20;;;;;;;;;;6305739;28;20101;-70
2021/05/17 13:03:06;;;;;;;1.60;0.50;;;;;;;;;;6302578;28;20154;-70
2021/05/17 13:06:10;;;;;;;0.60;0.47;;;;;;;;;;6307824;28;20067;-70
2021/05/17 13:09:19;;;;;;;1.73;0.30;;;;;;;;;;6305419;28;20095;-70
2021/05/17 13:12:21;;;;;;;0.75;0.40;;;;;;;;;;6307470;28;20074;-70
2021/05/17 13:15:22;;;;;;;0.35;0.32;;;;;;;;;;6307504;28;20051;-72
2021/05/17 13:18:29;;;;;;;1.63;0.68;;;;;;;;;;6315522;28;20052;-71
2021/05/17 13:21:37;;;;;;;1.08;0.47;;;;;;;;;;6315629;28;20044;-70
2021/05/17 13:31:42;;;;;;;0.80;0.30;;;;;;;;;;6301187;28;20483;-70
2021/05/17 13:34:44;;;;;;;0.75;0.30;;;;;;;;;;6301559;28;20059;-70
2021/05/17 13:37:45;;;;;;;0.80;0.32;;;;;;;;;;6304892;28;20464;-71
2021/05/17 13:40:46;;;;;;;5.95;0.60;;;;;;;;;;6305931;28;20122;-73
2021/05/17 13:43:48;;;;;;;0.90;0.40;;;;;;;;;;6308446;28;20431;-70
2021/05/17 13:46:53;;;;;;;2.63;0.50;;;;;;;;;;6309029;28;20056;-72
2021/05/17 13:49:54;;;;;;;3.90;0.32;;;;;;;;;;6313026;28;20198;-71
2021/05/17 13:52:55;;;;;;;0.70;0.38;;;;;;;;;;6313678;28;20044;-70
2021/05/17 13:55:56;;;;;;;2.03;0.50;;;;;;;;;;6305105;28;20739;-72
2021/05/17 13:58:58;;;;;;;0.98;0.50;;;;;;;;;;6306920;28;20147;-71
2021/05/17 14:01:59;;;;;;;4.70;0.88;;;;;;;;;;6312025;28;20062;-70
2021/05/17 14:05:00;;;;;;;10.75;1.30;;;;;;;;;;6314551;28;20051;-73
2021/05/17 14:08:01;;;;;;;1.25;0.40;;;;;;;;;;6307904;28;20048;-70
2021/05/17 14:11:03;;;;;;;0.95;0.32;;;;;;;;;;6311251;28;20075;-71
2021/05/17 14:14:05;;;;;;;2.35;0.60;;;;;;;;;;6318140;28;20052;-72
2021/05/17 14:17:06;;;;;;;0.88;0.40;;;;;;;;;;6306805;28;20124;-71
2021/05/17 14:20:09;;;;;;;2.00;0.40;;;;;;;;;;6305159;28;20059;-71
2021/05/17 14:23:11;;;;;;;1.38;0.40;;;;;;;;;;6307755;28;20108;-70
2021/05/17 14:26:12;;;;;;;0.97;0.40;;;;;;;;;;6301526;28;20555;-71
2021/05/17 14:29:14;;;;;;;2.45;0.40;;;;;;;;;;6302506;28;20472;-70
2021/05/17 14:32:15;;;;;;;8.48;1.15;;;;;;;;;;6312881;28;20390;-71
2021/05/17 14:35:17;;;;;;;1.67;0.50;;;;;;;;;;6305399;28;20127;-70
2021/05/17 14:38:18;;;;;;;1.23;0.40;;;;;;;;;;6311678;28;20403;-71
2021/05/17 14:41:19;;;;;;;3.20;0.30;;;;;;;;;;6304893;28;20131;-70
2021/05/17 14:44:22;;;;;;;1.85;0.30;;;;;;;;;;6303798;28;20043;-74
2021/05/17 14:47:24;;;;;;;1.23;0.40;;;;;;;;;;6306197;28;20042;-70
2021/05/17 14:50:25;;;;;;;0.95;0.20;;;;;;;;;;6303765;28;20045;-71
2021/05/17 14:53:27;;;;;;;3.63;0.50;;;;;;;;;;6307825;28;20537;-70
2021/05/17 14:56:28;;;;;;;4.55;0.50;;;;;;;;;;6297463;28;20056;-70
2021/05/17 14:59:30;;;;;;;2.58;0.45;;;;;;;;;;6314847;28;20177;-70
2021/05/17 15:02:32;;;;;;;2.45;0.30;;;;;;;;;;6302995;28;20048;-74
2021/05/17 15:05:33;;;;;;;1.35;0.50;;;;;;;;;;6239638;28;20076;-71
2021/05/17 15:08:34;;;;;;;0.57;0.30;;;;;;;;;;6279379;28;20352;-70
2021/05/17 15:11:35;;;;;;;6.20;0.40;;;;;;;;;;6292188;28;20164;-71
2021/05/17 15:14:37;;;;;;;5.15;0.50;;;;;;;;;;6278489;28;20139;-70
2021/05/17 15:17:38;;;;;;;0.45;0.22;;;;;;;;;;6286521;28;20251;-69
2021/05/17 15:20:40;;;;;;;0.63;0.30;;;;;;;;;;6285051;28;20084;-70
2021/05/17 15:23:42;;;;;;;0.30;0.22;;;;;;;;;;6282773;28;20056;-69
2021/05/17 15:26:44;;;;;;;2.10;0.30;;;;;;;;;;6286034;28;20053;-70
2021/05/17 15:29:46;;;;;;;0.45;0.40;;;;;;;;;;6282861;28;20049;-70
2021/05/17 15:32:47;;;;;;;0.40;0.40;;;;;;;;;;6272250;28;20040;-71
2021/05/17 15:35:48;;;;;;;0.60;0.40;;;;;;;;;;6285977;28;20143;-71
2021/05/17 15:38:49;;;;;;;1.38;0.40;;;;;;;;;;6289492;28;20106;-70
2021/05/17 15:41:50;;;;;;;2.15;0.38;;;;;;;;;;6288711;28;20053;-69
2021/05/17 15:44:53;;;;;;;0.60;0.40;;;;;;;;;;6281706;28;20694;-71
2021/05/17 15:47:54;;;;;;;1.27;0.50;;;;;;;;;;6287424;28;20466;-70
2021/05/17 15:50:55;;;;;;;0.73;0.30;;;;;;;;;;6284300;28;20164;-71
2021/05/17 15:53:56;;;;;;;1.13;0.50;;;;;;;;;;6282320;28;20123;-73
2021/05/17 15:56:58;;;;;;;4.35;0.57;;;;;;;;;;6293540;28;20052;-73
2021/05/17 16:00:00;;;;;;;1.75;0.60;;;;;;;;;;6277870;28;20048;-73
2021/05/17 16:03:01;;;;;;;1.20;0.60;;;;;;;;;;6286448;28;20055;-69
2021/05/17 16:06:04;;;;;;;3.25;0.50;;;;;;;;;;6309953;28;20044;-69
2021/05/17 16:09:07;;;;;;;2.80;1.00;;;;;;;;;;6313106;28;20081;-72
2021/05/17 16:12:12;;;;;;;0.93;0.40;;;;;;;;;;6315912;28;20059;-70
2021/05/17 16:15:18;;;;;;;2.38;0.45;;;;;;;;;;6310117;28;20052;-70
2021/05/17 16:18:30;;;;;;;0.55;0.38;;;;;;;;;;6314905;28;20048;-73
2021/05/17 16:21:33;;;;;;;2.58;0.73;;;;;;;;;;6312647;28;20040;-70
2021/05/17 16:24:34;;;;;;;1.95;0.70;;;;;;;;;;6313775;28;20380;-72
2021/05/17 16:27:35;;;;;;;1.95;0.50;;;;;;;;;;6309980;28;20044;-70
2021/05/17 16:30:37;;;;;;;0.90;0.40;;;;;;;;;;6313782;28;20066;-70
2021/05/17 16:33:41;;;;;;;1.10;0.60;;;;;;;;;;6308967;28;20099;-70
2021/05/17 16:36:48;;;;;;;1.88;0.90;;;;;;;;;;6312108;28;20055;-72
2021/05/17 16:39:49;;;;;;;4.95;1.00;;;;;;;;;;6314139;28;20083;-71
2021/05/17 16:42:51;;;;;;;1.85;1.30;;;;;;;;;;6313264;28;20058;-72
2021/05/17 16:45:53;;;;;;;2.05;1.00;;;;;;;;;;6310625;28;20044;-70
2021/05/17 16:49:01;;;;;;;0.52;0.38;;;;;;;;;;6313199;28;20147;-70
2021/05/17 16:52:04;;;;;;;0.60;0.55;;;;;;;;;;6313683;28;20048;-70
2021/05/17 16:55:08;;;;;;;0.52;0.30;;;;;;;;;;6307091;28;20048;-70
2021/05/17 16:58:09;;;;;;;0.60;0.25;;;;;;;;;;6308785;28;20177;-70
2021/05/17 17:01:11;;;;;;;1.77;0.30;;;;;;;;;;6315715;28;20052;-71
2021/05/17 17:04:13;;;;;;;1.80;0.60;;;;;;;;;;6317202;28;20040;-70
2021/05/17 17:07:15;;;;;;;0.60;0.20;;;;;;;;;;6316131;28;20660;-70
2021/05/17 17:10:19;;;;;;;1.95;0.40;;;;;;;;;;6316483;28;20102;-70
2021/05/17 17:13:21;;;;;;;0.90;0.30;;;;;;;;;;6312654;28;20075;-70
2021/05/17 17:16:23;;;;;;;1.70;0.90;;;;;;;;;;6310813;28;20067;-71
2021/05/17 17:19:35;;;;;;;0.50;0.30;;;;;;;;;;6308059;28;20128;-70
2021/05/17 17:22:36;;;;;;;3.08;0.55;;;;;;;;;;6309280;28;20063;-70
2021/05/17 17:25:37;;;;;;;0.40;0.30;;;;;;;;;;6314033;28;20071;-70
2021/05/17 17:28:39;;;;;;;1.20;0.60;;;;;;;;;;6314349;28;20563;-69
2021/05/17 17:31:41;;;;;;;2.20;0.50;;;;;;;;;;6315896;28;20044;-69
2021/05/17 17:34:43;;;;;;;1.73;0.30;;;;;;;;;;6313562;28;20395;-70
2021/05/17 17:37:44;;;;;;;1.63;0.60;;;;;;;;;;6316762;28;20489;-70
2021/05/17 17:40:45;;;;;;;1.35;0.68;;;;;;;;;;6317960;28;20051;-70
2021/05/17 17:43:46;;;;;;;1.63;0.90;;;;;;;;;;6315572;28;20064;-70
2021/05/17 17:46:48;;;;;;;1.77;1.00;;;;;;;;;;6315743;28;20102;-72
2021/05/17 17:49:50;;;;;;;1.45;0.90;;;;;;;;;;6312405;28;20080;-70
2021/05/17 17:52:51;;;;;;;1.58;0.95;;;;;;;;;;6314382;28;20040;-70
2021/05/17 17:55:52;;;;;;;1.23;0.95;;;;;;;;;;6306379;28;20043;-70
2021/05/17 17:58:53;;;;;;;3.53;1.20;;;;;;;;;;6310910;28;20051;-69
2021/05/17 18:01:56;;;;;;;5.30;2.10;;;;;;;;;;6307668;28;20063;-69
2021/05/17 18:04:58;;;;;;;3.22;1.77;;;;;;;;;;6310769;28;20093;-72
2021/05/17 18:07:59;;;;;;;4.38;2.00;;;;;;;;;;6308532;28;20718;-70
2021/05/17 18:11:00;;;;;;;3.00;1.38;;;;;;;;;;6313342;28;20098;-69
2021/05/17 18:14:06;;;;;;;3.10;2.10;;;;;;;;;;6309191;28;20048;-69
2021/05/17 18:17:08;;;;;;;2.67;1.83;;;;;;;;;;6307728;28;20040;-73
2021/05/17 18:20:14;;;;;;;4.60;2.00;;;;;;;;;;6305872;28;20044;-75
2021/05/17 18:23:15;;;;;;;2.50;1.35;;;;;;;;;;6312699;28;20078;-70
2021/05/17 18:26:16;;;;;;;1.90;1.05;;;;;;;;;;6308095;28;20092;-69
2021/05/17 18:29:18;;;;;;;2.08;1.00;;;;;;;;;;6311857;28;20142;-70
2021/05/17 18:32:23;;;;;;;2.83;1.50;;;;;;;;;;6308419;28;20048;-71
2021/05/17 18:35:27;;;;;;;4.55;2.13;;;;;;;;;;6303158;28;20424;-70
2021/05/17 18:38:29;;;;;;;4.13;2.50;;;;;;;;;;6303745;28;20052;-70
2021/05/17 18:41:30;;;;;;;9.38;5.55;;;;;;;;;;6311398;28;20066;-70